Time;durP1;ratioP1;P1;durP2;ratioP2;P2;SDS_P1;SDS_P2;PMS_P1;PMS_P2;Temp;Humidity;BMP_temperature;BMP_pressure;BME280_temperature;BME280_humidity;BME280_pressure;Samples;Min_cycle;Max_cycle;Signal;HPM_P1;HPM_P2
2021/04/11 00:00:27;;;;;;;4.5;3.1;;;;;;;8.96;48.15527;94632.01;;;;
2021/04/11 00:01:31;;;;;;;4.5;3.1;;;;;;;8.96;48.15527;94632.01;;;;
2021/04/11 00:02:31;;;;;;;4.5;3.1;;;;;;;8.96;48.15527;94632.01;;;;
2021/04/11 00:03:32;;;;;;;4.5;3.1;;;;;;;8.96;48.15527;94632.01;;;;
2021/04/11 00:04:32;;;;;;;4.5;3.1;;;;;;;8.96;48.15527;94632.01;;;;
2021/04/11 00:05:33;;;;;;;5.5;3.25;;;;;;;9.04;48.02441;94631.22;;;;
2021/04/11 00:06:35;;;;;;;5.5;3.25;;;;;;;9.04;48.02441;94631.22;;;;
2021/04/11 00:07:36;;;;;;;5.5;3.25;;;;;;;9.04;48.02441;94631.22;;;;
2021/04/11 00:08:36;;;;;;;5.5;3.25;;;;;;;9.04;48.02441;94631.22;;;;
2021/04/11 00:09:37;;;;;;;5.5;3.25;;;;;;;9.04;48.02441;94631.22;;;;
2021/04/11 00:10:37;;;;;;;5.5;3.25;;;;;;;9.04;48.02441;94631.22;;;;
2021/04/11 00:11:40;;;;;;;5.5;3.25;;;;;;;9.04;48.02441;94631.22;;;;
2021/04/11 00:12:40;;;;;;;5.5;3.25;;;;;;;9.04;48.02441;94631.22;;;;
2021/04/11 00:13:41;;;;;;;5.5;3.25;;;;;;;9.04;48.02441;94631.22;;;;
2021/04/11 00:14:41;;;;;;;5.5;3.25;;;;;;;9.04;48.02441;94631.22;;;;
2021/04/11 00:15:42;;;;;;;5.5;3.25;;;;;;;9.04;48.02441;94631.22;;;;
2021/04/11 00:16:43;;;;;;;6.650001;3.25;;;;;;;9.1;47.80469;94619.61;;;;
2021/04/11 00:17:43;;;;;;;6.650001;3.25;;;;;;;9.1;47.80469;94619.61;;;;
2021/04/11 00:18:44;;;;;;;6.650001;3.25;;;;;;;9.1;47.80469;94619.61;;;;
2021/04/11 00:19:45;;;;;;;6.650001;3.25;;;;;;;9.1;47.80469;94619.61;;;;
2021/04/11 00:20:45;;;;;;;6.650001;3.25;;;;;;;9.1;47.80469;94619.61;;;;
2021/04/11 00:21:45;;;;;;;6.650001;3.25;;;;;;;9.1;47.80469;94619.61;;;;
2021/04/11 00:22:46;;;;;;;6.650001;3.25;;;;;;;9.1;47.80469;94619.61;;;;
2021/04/11 00:23:47;;;;;;;6.650001;3.25;;;;;;;9.1;47.80469;94619.61;;;;
2021/04/11 00:24:47;;;;;;;6.650001;3.25;;;;;;;9.1;47.80469;94619.61;;;;
2021/04/11 00:25:48;;;;;;;6.650001;3.25;;;;;;;9.1;47.80469;94619.61;;;;
2021/04/11 00:26:49;;;;;;;4.25;3;;;;;;;9.03;47.76465;94612.21;;;;
2021/04/11 00:27:49;;;;;;;4.25;3;;;;;;;9.03;47.76465;94612.21;;;;
2021/04/11 00:28:50;;;;;;;4.25;3;;;;;;;9.03;47.76465;94612.21;;;;
2021/04/11 00:29:51;;;;;;;4.25;3;;;;;;;9.03;47.76465;94612.21;;;;
2021/04/11 00:30:51;;;;;;;4.25;3;;;;;;;9.03;47.76465;94612.21;;;;
2021/04/11 00:31:52;;;;;;;4.25;3;;;;;;;9.03;47.76465;94612.21;;;;
2021/04/11 00:32:52;;;;;;;4.25;3;;;;;;;9.03;47.76465;94612.21;;;;
2021/04/11 00:33:55;;;;;;;4.25;3;;;;;;;9.03;47.76465;94612.21;;;;
2021/04/11 00:34:55;;;;;;;4.25;3;;;;;;;9.03;47.76465;94612.21;;;;
2021/04/11 00:35:56;;;;;;;4.25;3;;;;;;;9.03;47.76465;94612.21;;;;
2021/04/11 00:36:58;;;;;;;4.25;3;;;;;;;9.03;47.76465;94612.21;;;;
2021/04/11 00:37:59;;;;;;;3.7;3.3;;;;;;;8.96;47.75684;94606.44;;;;
2021/04/11 00:39:00;;;;;;;3.7;3.3;;;;;;;8.96;47.75684;94606.44;;;;
2021/04/11 00:40:01;;;;;;;3.7;3.3;;;;;;;8.96;47.75684;94606.44;;;;
2021/04/11 00:41:08;;;;;;;3.7;3.3;;;;;;;8.96;47.75684;94606.44;;;;
2021/04/11 00:42:14;;;;;;;3.7;3.3;;;;;;;8.96;47.75684;94606.44;;;;
2021/04/11 00:43:22;;;;;;;3.7;3.3;;;;;;;8.96;47.75684;94606.44;;;;
2021/04/11 00:44:25;;;;;;;3.7;3.3;;;;;;;8.96;47.75684;94606.44;;;;
2021/04/11 00:45:25;;;;;;;3.7;3.3;;;;;;;8.96;47.75684;94606.44;;;;
2021/04/11 00:46:34;;;;;;;3.7;3.3;;;;;;;8.96;47.75684;94606.44;;;;
2021/04/11 00:47:43;;;;;;;3.7;3.3;;;;;;;8.96;47.75684;94606.44;;;;
2021/04/11 00:48:44;;;;;;;4.649999;2.900001;;;;;;;8.78;47.87695;94596.01;;;;
2021/04/11 00:49:47;;;;;;;4.649999;2.900001;;;;;;;8.78;47.87695;94596.01;;;;
2021/04/11 00:50:47;;;;;;;4.649999;2.900001;;;;;;;8.78;47.87695;94596.01;;;;
2021/04/11 00:51:51;;;;;;;4.649999;2.900001;;;;;;;8.78;47.87695;94596.01;;;;
2021/04/11 00:52:52;;;;;;;4.649999;2.900001;;;;;;;8.78;47.87695;94596.01;;;;
2021/04/11 00:53:53;;;;;;;4.649999;2.900001;;;;;;;8.78;47.87695;94596.01;;;;
2021/04/11 00:54:58;;;;;;;4.649999;2.900001;;;;;;;8.78;47.87695;94596.01;;;;
2021/04/11 00:55:59;;;;;;;4.649999;2.900001;;;;;;;8.78;47.87695;94596.01;;;;
2021/04/11 00:57:01;;;;;;;4.649999;2.900001;;;;;;;8.78;47.87695;94596.01;;;;
2021/04/11 00:58:02;;;;;;;4.649999;2.900001;;;;;;;8.78;47.87695;94596.01;;;;
2021/04/11 00:59:03;;;;;;;3.699999;2.75;;;;;;;8.55;48.05566;94590.6;;;;
2021/04/11 01:00:05;;;;;;;3.699999;2.75;;;;;;;8.55;48.05566;94590.6;;;;
2021/04/11 01:01:07;;;;;;;3.699999;2.75;;;;;;;8.55;48.05566;94590.6;;;;
2021/04/11 01:02:09;;;;;;;3.699999;2.75;;;;;;;8.55;48.05566;94590.6;;;;
2021/04/11 01:03:09;;;;;;;3.699999;2.75;;;;;;;8.55;48.05566;94590.6;;;;
2021/04/11 01:04:16;;;;;;;3.699999;2.75;;;;;;;8.55;48.05566;94590.6;;;;
2021/04/11 01:05:17;;;;;;;3.699999;2.75;;;;;;;8.55;48.05566;94590.6;;;;
2021/04/11 01:06:21;;;;;;;3.699999;2.75;;;;;;;8.55;48.05566;94590.6;;;;
2021/04/11 01:07:27;;;;;;;3.699999;2.75;;;;;;;8.55;48.05566;94590.6;;;;
2021/04/11 01:08:28;;;;;;;3.699999;2.75;;;;;;;8.55;48.05566;94590.6;;;;
2021/04/11 01:09:31;;;;;;;4.15;2.95;;;;;;;8.47;48.1748;94587.08;;;;
2021/04/11 01:10:35;;;;;;;4.15;2.95;;;;;;;8.47;48.1748;94587.08;;;;
2021/04/11 01:11:38;;;;;;;4.15;2.95;;;;;;;8.47;48.1748;94587.08;;;;
2021/04/11 01:12:40;;;;;;;4.15;2.95;;;;;;;8.47;48.1748;94587.08;;;;
2021/04/11 01:13:41;;;;;;;4.15;2.95;;;;;;;8.47;48.1748;94587.08;;;;
2021/04/11 01:14:45;;;;;;;4.15;2.95;;;;;;;8.47;48.1748;94587.08;;;;
2021/04/11 01:15:47;;;;;;;4.15;2.95;;;;;;;8.47;48.1748;94587.08;;;;
2021/04/11 01:16:48;;;;;;;4.15;2.95;;;;;;;8.47;48.1748;94587.08;;;;
2021/04/11 01:17:48;;;;;;;4.15;2.95;;;;;;;8.47;48.1748;94587.08;;;;
2021/04/11 01:18:49;;;;;;;4.15;2.95;;;;;;;8.47;48.1748;94587.08;;;;
2021/04/11 01:19:50;;;;;;;4.15;2.95;;;;;;;8.47;48.1748;94587.08;;;;
2021/04/11 01:20:52;;;;;;;3.8;2.95;;;;;;;8.35;48.20508;94583.48;;;;
2021/04/11 01:21:55;;;;;;;3.8;2.95;;;;;;;8.35;48.20508;94583.48;;;;
2021/04/11 01:23:05;;;;;;;3.8;2.95;;;;;;;8.35;48.20508;94583.48;;;;
2021/04/11 01:24:17;;;;;;;3.8;2.95;;;;;;;8.35;48.20508;94583.48;;;;
2021/04/11 01:25:22;;;;;;;3.8;2.95;;;;;;;8.35;48.20508;94583.48;;;;
2021/04/11 01:26:27;;;;;;;3.8;2.95;;;;;;;8.35;48.20508;94583.48;;;;
2021/04/11 01:27:28;;;;;;;3.8;2.95;;;;;;;8.35;48.20508;94583.48;;;;
2021/04/11 01:28:31;;;;;;;3.8;2.95;;;;;;;8.35;48.20508;94583.48;;;;
2021/04/11 01:29:37;;;;;;;3.8;2.95;;;;;;;8.35;48.20508;94583.48;;;;
2021/04/11 01:30:39;;;;;;;3.5;2.75;;;;;;;8.28;48.34766;94569.87;;;;
2021/04/11 01:31:42;;;;;;;3.5;2.75;;;;;;;8.28;48.34766;94569.87;;;;
2021/04/11 01:32:42;;;;;;;3.5;2.75;;;;;;;8.28;48.34766;94569.87;;;;
2021/04/11 01:33:43;;;;;;;3.5;2.75;;;;;;;8.28;48.34766;94569.87;;;;
2021/04/11 01:34:48;;;;;;;3.5;2.75;;;;;;;8.28;48.34766;94569.87;;;;
2021/04/11 01:35:53;;;;;;;3.5;2.75;;;;;;;8.28;48.34766;94569.87;;;;
2021/04/11 01:36:56;;;;;;;3.5;2.75;;;;;;;8.28;48.34766;94569.87;;;;
2021/04/11 01:37:58;;;;;;;3.5;2.75;;;;;;;8.28;48.34766;94569.87;;;;
2021/04/11 01:39:01;;;;;;;3.5;2.75;;;;;;;8.28;48.34766;94569.87;;;;
2021/04/11 01:40:09;;;;;;;3.5;2.75;;;;;;;8.28;48.34766;94569.87;;;;
2021/04/11 01:41:13;;;;;;;3.5;2.75;;;;;;;8.28;48.34766;94569.87;;;;
2021/04/11 01:42:20;;;;;;;3.8;3.2;;;;;;;8.24;48.43848;94558.37;;;;
2021/04/11 01:43:21;;;;;;;3.8;3.2;;;;;;;8.24;48.43848;94558.37;;;;
2021/04/11 01:44:23;;;;;;;3.8;3.2;;;;;;;8.24;48.43848;94558.37;;;;
2021/04/11 01:45:26;;;;;;;3.8;3.2;;;;;;;8.24;48.43848;94558.37;;;;
2021/04/11 01:46:29;;;;;;;3.8;3.2;;;;;;;8.24;48.43848;94558.37;;;;
2021/04/11 01:47:30;;;;;;;3.8;3.2;;;;;;;8.24;48.43848;94558.37;;;;
2021/04/11 01:48:31;;;;;;;3.8;3.2;;;;;;;8.24;48.43848;94558.37;;;;
2021/04/11 01:49:32;;;;;;;3.8;3.2;;;;;;;8.24;48.43848;94558.37;;;;
2021/04/11 01:50:33;;;;;;;3.8;3.2;;;;;;;8.24;48.43848;94558.37;;;;
2021/04/11 01:51:35;;;;;;;3.8;3.2;;;;;;;8.24;48.43848;94558.37;;;;
2021/04/11 01:52:38;;;;;;;3.15;2.85;;;;;;;8.25;48.52637;94560.02;;;;
2021/04/11 01:53:40;;;;;;;3.15;2.85;;;;;;;8.25;48.52637;94560.02;;;;
2021/04/11 01:54:43;;;;;;;3.15;2.85;;;;;;;8.25;48.52637;94560.02;;;;
2021/04/11 01:55:44;;;;;;;3.15;2.85;;;;;;;8.25;48.52637;94560.02;;;;
2021/04/11 01:56:45;;;;;;;3.15;2.85;;;;;;;8.25;48.52637;94560.02;;;;
2021/04/11 01:57:46;;;;;;;3.15;2.85;;;;;;;8.25;48.52637;94560.02;;;;
2021/04/11 01:58:52;;;;;;;3.15;2.85;;;;;;;8.25;48.52637;94560.02;;;;
2021/04/11 01:59:53;;;;;;;3.15;2.85;;;;;;;8.25;48.52637;94560.02;;;;
2021/04/11 02:00:59;;;;;;;3.15;2.85;;;;;;;8.25;48.52637;94560.02;;;;
2021/04/11 02:02:07;;;;;;;3.15;2.85;;;;;;;8.25;48.52637;94560.02;;;;
2021/04/11 02:03:11;;;;;;;3.9;2.85;;;;;;;8.21;48.69434;94546.21;;;;
2021/04/11 02:04:14;;;;;;;3.9;2.85;;;;;;;8.21;48.69434;94546.21;;;;
2021/04/11 02:05:15;;;;;;;3.9;2.85;;;;;;;8.21;48.69434;94546.21;;;;
2021/04/11 02:06:18;;;;;;;3.9;2.85;;;;;;;8.21;48.69434;94546.21;;;;
2021/04/11 02:07:21;;;;;;;3.9;2.85;;;;;;;8.21;48.69434;94546.21;;;;
2021/04/11 02:08:21;;;;;;;3.9;2.85;;;;;;;8.21;48.69434;94546.21;;;;
2021/04/11 02:09:25;;;;;;;3.9;2.85;;;;;;;8.21;48.69434;94546.21;;;;
2021/04/11 02:10:29;;;;;;;3.9;2.85;;;;;;;8.21;48.69434;94546.21;;;;
2021/04/11 02:11:33;;;;;;;3.9;2.85;;;;;;;8.21;48.69434;94546.21;;;;
2021/04/11 02:12:34;;;;;;;3.9;2.85;;;;;;;8.21;48.69434;94546.21;;;;
2021/04/11 02:13:36;;;;;;;4.1;2.95;;;;;;;8.12;48.91895;94546.81;;;;
2021/04/11 02:14:40;;;;;;;4.1;2.95;;;;;;;8.12;48.91895;94546.81;;;;
2021/04/11 02:15:43;;;;;;;4.1;2.95;;;;;;;8.12;48.91895;94546.81;;;;
2021/04/11 02:16:47;;;;;;;4.1;2.95;;;;;;;8.12;48.91895;94546.81;;;;
2021/04/11 02:17:48;;;;;;;4.1;2.95;;;;;;;8.12;48.91895;94546.81;;;;
2021/04/11 02:18:51;;;;;;;4.1;2.95;;;;;;;8.12;48.91895;94546.81;;;;
2021/04/11 02:19:58;;;;;;;4.1;2.95;;;;;;;8.12;48.91895;94546.81;;;;
2021/04/11 02:20:58;;;;;;;4.1;2.95;;;;;;;8.12;48.91895;94546.81;;;;
2021/04/11 02:22:01;;;;;;;4.1;2.95;;;;;;;8.12;48.91895;94546.81;;;;
2021/04/11 02:23:07;;;;;;;4.1;2.95;;;;;;;8.12;48.91895;94546.81;;;;
2021/04/11 02:24:10;;;;;;;3.999999;2.6;;;;;;;8.01;49.06738;94544.56;;;;
2021/04/11 02:25:11;;;;;;;3.999999;2.6;;;;;;;8.01;49.06738;94544.56;;;;
2021/04/11 02:26:15;;;;;;;3.999999;2.6;;;;;;;8.01;49.06738;94544.56;;;;
2021/04/11 02:27:16;;;;;;;3.999999;2.6;;;;;;;8.01;49.06738;94544.56;;;;
2021/04/11 02:28:20;;;;;;;3.999999;2.6;;;;;;;8.01;49.06738;94544.56;;;;
2021/04/11 02:29:24;;;;;;;3.999999;2.6;;;;;;;8.01;49.06738;94544.56;;;;
2021/04/11 02:30:27;;;;;;;3.999999;2.6;;;;;;;8.01;49.06738;94544.56;;;;
2021/04/11 02:31:29;;;;;;;3.999999;2.6;;;;;;;8.01;49.06738;94544.56;;;;
2021/04/11 02:32:29;;;;;;;3.999999;2.6;;;;;;;8.01;49.06738;94544.56;;;;
2021/04/11 02:33:30;;;;;;;3.999999;2.6;;;;;;;8.01;49.06738;94544.56;;;;
2021/04/11 02:34:31;;;;;;;3.999999;2.6;;;;;;;8.01;49.06738;94544.56;;;;
2021/04/11 02:35:33;;;;;;;3.1;2.8;;;;;;;7.97;49.36328;94548.25;;;;
2021/04/11 02:36:34;;;;;;;3.1;2.8;;;;;;;7.97;49.36328;94548.25;;;;
2021/04/11 02:37:38;;;;;;;3.1;2.8;;;;;;;7.97;49.36328;94548.25;;;;
2021/04/11 02:38:41;;;;;;;3.1;2.8;;;;;;;7.97;49.36328;94548.25;;;;
2021/04/11 02:39:42;;;;;;;3.1;2.8;;;;;;;7.97;49.36328;94548.25;;;;
2021/04/11 02:40:43;;;;;;;3.1;2.8;;;;;;;7.97;49.36328;94548.25;;;;
2021/04/11 02:41:48;;;;;;;3.1;2.8;;;;;;;7.97;49.36328;94548.25;;;;
2021/04/11 02:42:49;;;;;;;3.1;2.8;;;;;;;7.97;49.36328;94548.25;;;;
2021/04/11 02:43:50;;;;;;;3.1;2.8;;;;;;;7.97;49.36328;94548.25;;;;
2021/04/11 02:44:50;;;;;;;3.1;2.8;;;;;;;7.97;49.36328;94548.25;;;;
2021/04/11 02:45:53;;;;;;;4.05;2.8;;;;;;;7.87;49.62988;94544.95;;;;
2021/04/11 02:46:57;;;;;;;4.05;2.8;;;;;;;7.87;49.62988;94544.95;;;;
2021/04/11 02:47:58;;;;;;;4.05;2.8;;;;;;;7.87;49.62988;94544.95;;;;
2021/04/11 02:48:59;;;;;;;4.05;2.8;;;;;;;7.87;49.62988;94544.95;;;;
2021/04/11 02:49:59;;;;;;;4.05;2.8;;;;;;;7.87;49.62988;94544.95;;;;
2021/04/11 02:51:00;;;;;;;4.05;2.8;;;;;;;7.87;49.62988;94544.95;;;;
2021/04/11 02:52:02;;;;;;;4.05;2.8;;;;;;;7.87;49.62988;94544.95;;;;
2021/04/11 02:53:06;;;;;;;4.05;2.8;;;;;;;7.87;49.62988;94544.95;;;;
2021/04/11 02:54:10;;;;;;;4.05;2.8;;;;;;;7.87;49.62988;94544.95;;;;
2021/04/11 02:55:17;;;;;;;4.05;2.8;;;;;;;7.87;49.62988;94544.95;;;;
2021/04/11 02:56:18;;;;;;;2.9;2.5;;;;;;;7.73;49.87012;94543.59;;;;
2021/04/11 02:57:19;;;;;;;2.9;2.5;;;;;;;7.73;49.87012;94543.59;;;;
2021/04/11 02:58:21;;;;;;;2.9;2.5;;;;;;;7.73;49.87012;94543.59;;;;
2021/04/11 02:59:22;;;;;;;2.9;2.5;;;;;;;7.73;49.87012;94543.59;;;;
2021/04/11 03:00:23;;;;;;;2.9;2.5;;;;;;;7.73;49.87012;94543.59;;;;
2021/04/11 03:01:28;;;;;;;2.9;2.5;;;;;;;7.73;49.87012;94543.59;;;;
2021/04/11 03:02:33;;;;;;;2.9;2.5;;;;;;;7.73;49.87012;94543.59;;;;
2021/04/11 03:03:33;;;;;;;2.9;2.5;;;;;;;7.73;49.87012;94543.59;;;;
2021/04/11 03:04:34;;;;;;;2.9;2.5;;;;;;;7.73;49.87012;94543.59;;;;
2021/04/11 03:05:34;;;;;;;2.9;2.5;;;;;;;7.73;49.87012;94543.59;;;;
2021/04/11 03:06:36;;;;;;;2.9;2.5;;;;;;;7.73;49.87012;94543.59;;;;
2021/04/11 03:07:39;;;;;;;5.05;2.9;;;;;;;7.63;50.20215;94553.16;;;;
2021/04/11 03:08:45;;;;;;;5.05;2.9;;;;;;;7.63;50.20215;94553.16;;;;
2021/04/11 03:09:49;;;;;;;5.05;2.9;;;;;;;7.63;50.20215;94553.16;;;;
2021/04/11 03:10:56;;;;;;;5.05;2.9;;;;;;;7.63;50.20215;94553.16;;;;
2021/04/11 03:12:08;;;;;;;5.05;2.9;;;;;;;7.63;50.20215;94553.16;;;;
2021/04/11 03:13:10;;;;;;;5.05;2.9;;;;;;;7.63;50.20215;94553.16;;;;
2021/04/11 03:14:12;;;;;;;5.05;2.9;;;;;;;7.63;50.20215;94553.16;;;;
2021/04/11 03:15:15;;;;;;;5.05;2.9;;;;;;;7.63;50.20215;94553.16;;;;
2021/04/11 03:16:17;;;;;;;5.05;2.9;;;;;;;7.63;50.20215;94553.16;;;;
2021/04/11 03:17:18;;;;;;;5.05;2.9;;;;;;;7.63;50.20215;94553.16;;;;
2021/04/11 03:18:22;;;;;;;3.25;2.9;;;;;;;7.5;50.53027;94543.11;;;;
2021/04/11 03:19:25;;;;;;;3.25;2.9;;;;;;;7.5;50.53027;94543.11;;;;
2021/04/11 03:20:31;;;;;;;3.25;2.9;;;;;;;7.5;50.53027;94543.11;;;;
2021/04/11 03:21:38;;;;;;;3.25;2.9;;;;;;;7.5;50.53027;94543.11;;;;
2021/04/11 03:22:40;;;;;;;3.25;2.9;;;;;;;7.5;50.53027;94543.11;;;;
2021/04/11 03:23:41;;;;;;;3.25;2.9;;;;;;;7.5;50.53027;94543.11;;;;
2021/04/11 03:24:42;;;;;;;3.25;2.9;;;;;;;7.5;50.53027;94543.11;;;;
2021/04/11 03:25:43;;;;;;;3.25;2.9;;;;;;;7.5;50.53027;94543.11;;;;
2021/04/11 03:26:43;;;;;;;3.25;2.9;;;;;;;7.5;50.53027;94543.11;;;;
2021/04/11 03:27:47;;;;;;;3.25;2.9;;;;;;;7.5;50.53027;94543.11;;;;
2021/04/11 03:28:53;;;;;;;4.3;2.95;;;;;;;7.43;50.92773;94528.02;;;;
2021/04/11 03:30:00;;;;;;;4.3;2.95;;;;;;;7.43;50.92773;94528.02;;;;
2021/04/11 03:31:07;;;;;;;4.3;2.95;;;;;;;7.43;50.92773;94528.02;;;;
2021/04/11 03:32:12;;;;;;;4.3;2.95;;;;;;;7.43;50.92773;94528.02;;;;
2021/04/11 03:33:20;;;;;;;4.3;2.95;;;;;;;7.43;50.92773;94528.02;;;;
2021/04/11 03:34:22;;;;;;;4.3;2.95;;;;;;;7.43;50.92773;94528.02;;;;
2021/04/11 03:35:24;;;;;;;4.3;2.95;;;;;;;7.43;50.92773;94528.02;;;;
2021/04/11 03:36:28;;;;;;;4.3;2.95;;;;;;;7.43;50.92773;94528.02;;;;
2021/04/11 03:37:29;;;;;;;4.3;2.95;;;;;;;7.43;50.92773;94528.02;;;;
2021/04/11 03:38:32;;;;;;;4.3;2.95;;;;;;;7.43;50.92773;94528.02;;;;
2021/04/11 03:39:34;;;;;;;4.75;3.35;;;;;;;7.41;51.24707;94534.56;;;;
2021/04/11 03:40:36;;;;;;;4.75;3.35;;;;;;;7.41;51.24707;94534.56;;;;
2021/04/11 03:41:39;;;;;;;4.75;3.35;;;;;;;7.41;51.24707;94534.56;;;;
2021/04/11 03:42:42;;;;;;;4.75;3.35;;;;;;;7.41;51.24707;94534.56;;;;
2021/04/11 03:43:47;;;;;;;4.75;3.35;;;;;;;7.41;51.24707;94534.56;;;;
2021/04/11 03:44:51;;;;;;;4.75;3.35;;;;;;;7.41;51.24707;94534.56;;;;
2021/04/11 03:45:53;;;;;;;4.75;3.35;;;;;;;7.41;51.24707;94534.56;;;;
2021/04/11 03:46:57;;;;;;;4.75;3.35;;;;;;;7.41;51.24707;94534.56;;;;
2021/04/11 03:48:04;;;;;;;4.75;3.35;;;;;;;7.41;51.24707;94534.56;;;;
2021/04/11 03:49:15;;;;;;;4.75;3.35;;;;;;;7.41;51.24707;94534.56;;;;
2021/04/11 03:50:24;;;;;;;3.8;3.15;;;;;;;7.28;51.59473;94529.57;;;;
2021/04/11 03:51:30;;;;;;;3.8;3.15;;;;;;;7.28;51.59473;94529.57;;;;
2021/04/11 03:52:37;;;;;;;3.8;3.15;;;;;;;7.28;51.59473;94529.57;;;;
2021/04/11 03:53:42;;;;;;;3.8;3.15;;;;;;;7.28;51.59473;94529.57;;;;
2021/04/11 03:54:46;;;;;;;3.8;3.15;;;;;;;7.28;51.59473;94529.57;;;;
2021/04/11 03:55:47;;;;;;;3.8;3.15;;;;;;;7.28;51.59473;94529.57;;;;
2021/04/11 03:56:49;;;;;;;3.8;3.15;;;;;;;7.28;51.59473;94529.57;;;;
2021/04/11 03:57:54;;;;;;;3.8;3.15;;;;;;;7.28;51.59473;94529.57;;;;
2021/04/11 03:58:58;;;;;;;3.8;3.15;;;;;;;7.28;51.59473;94529.57;;;;
2021/04/11 04:00:04;;;;;;;4.400001;3.05;;;;;;;7.03;52.00195;94532.07;;;;
2021/04/11 04:01:08;;;;;;;4.400001;3.05;;;;;;;7.03;52.00195;94532.07;;;;
2021/04/11 04:02:14;;;;;;;4.400001;3.05;;;;;;;7.03;52.00195;94532.07;;;;
2021/04/11 04:03:16;;;;;;;4.400001;3.05;;;;;;;7.03;52.00195;94532.07;;;;
2021/04/11 04:04:22;;;;;;;4.400001;3.05;;;;;;;7.03;52.00195;94532.07;;;;
2021/04/11 04:05:25;;;;;;;4.400001;3.05;;;;;;;7.03;52.00195;94532.07;;;;
2021/04/11 04:06:29;;;;;;;4.400001;3.05;;;;;;;7.03;52.00195;94532.07;;;;
2021/04/11 04:07:32;;;;;;;4.400001;3.05;;;;;;;7.03;52.00195;94532.07;;;;
2021/04/11 04:10:33;;;;;;;4.400001;3.05;;;;;;;7.03;52.00195;94532.07;;;;
2021/04/11 04:11:37;;;;;;;4.199999;3.2;;;;;;;6.74;52.47949;94533.37;;;;
2021/04/11 04:13:01;;;;;;;4.199999;3.2;;;;;;;6.74;52.47949;94533.37;;;;
2021/04/11 04:14:13;;;;;;;4.199999;3.2;;;;;;;6.74;52.47949;94533.37;;;;
2021/04/11 04:15:25;;;;;;;4.199999;3.2;;;;;;;6.74;52.47949;94533.37;;;;
2021/04/11 04:16:39;;;;;;;4.199999;3.2;;;;;;;6.74;52.47949;94533.37;;;;
2021/04/11 04:17:55;;;;;;;4.199999;3.2;;;;;;;6.74;52.47949;94533.37;;;;
2021/04/11 04:19:13;;;;;;;4.199999;3.2;;;;;;;6.74;52.47949;94533.37;;;;
2021/04/11 04:20:25;;;;;;;4.199999;3.2;;;;;;;6.74;52.47949;94533.37;;;;
2021/04/11 04:21:32;;;;;;;3.8;3.15;;;;;;;6.47;52.93848;94537.5;;;;
2021/04/11 04:23:00;;;;;;;3.8;3.15;;;;;;;6.47;52.93848;94537.5;;;;
2021/04/11 04:24:09;;;;;;;3.8;3.15;;;;;;;6.47;52.93848;94537.5;;;;
2021/04/11 04:25:23;;;;;;;3.8;3.15;;;;;;;6.47;52.93848;94537.5;;;;
2021/04/11 04:26:37;;;;;;;3.8;3.15;;;;;;;6.47;52.93848;94537.5;;;;
2021/04/11 04:27:44;;;;;;;3.8;3.15;;;;;;;6.47;52.93848;94537.5;;;;
2021/04/11 04:29:01;;;;;;;3.8;3.15;;;;;;;6.47;52.93848;94537.5;;;;
2021/04/11 04:30:13;;;;;;;3.8;3.15;;;;;;;6.47;52.93848;94537.5;;;;
2021/04/11 04:31:19;;;;;;;3.8;3.15;;;;;;;6.47;52.93848;94537.5;;;;
2021/04/11 04:32:29;;;;;;;5.5;3.05;;;;;;;6.25;53.34863;94541.74;;;;
2021/04/11 04:33:39;;;;;;;5.5;3.05;;;;;;;6.25;53.34863;94541.74;;;;
2021/04/11 04:34:58;;;;;;;5.5;3.05;;;;;;;6.25;53.34863;94541.74;;;;
2021/04/11 04:36:12;;;;;;;5.5;3.05;;;;;;;6.25;53.34863;94541.74;;;;
2021/04/11 04:37:27;;;;;;;5.5;3.05;;;;;;;6.25;53.34863;94541.74;;;;
2021/04/11 04:38:38;;;;;;;5.5;3.05;;;;;;;6.25;53.34863;94541.74;;;;
2021/04/11 04:39:51;;;;;;;5.5;3.05;;;;;;;6.25;53.34863;94541.74;;;;
2021/04/11 04:40:59;;;;;;;5.5;3.05;;;;;;;6.25;53.34863;94541.74;;;;
2021/04/11 04:42:10;;;;;;;5.5;3.05;;;;;;;6.25;53.34863;94541.74;;;;
2021/04/11 04:43:17;;;;;;;4.25;3.3;;;;;;;6.14;53.6543;94543.84;;;;
2021/04/11 04:44:26;;;;;;;4.25;3.3;;;;;;;6.14;53.6543;94543.84;;;;
2021/04/11 04:45:34;;;;;;;4.25;3.3;;;;;;;6.14;53.6543;94543.84;;;;
2021/04/11 04:46:40;;;;;;;4.25;3.3;;;;;;;6.14;53.6543;94543.84;;;;
2021/04/11 04:47:46;;;;;;;4.25;3.3;;;;;;;6.14;53.6543;94543.84;;;;
2021/04/11 04:48:52;;;;;;;4.25;3.3;;;;;;;6.14;53.6543;94543.84;;;;
2021/04/11 04:50:00;;;;;;;4.25;3.3;;;;;;;6.14;53.6543;94543.84;;;;
2021/04/11 04:51:07;;;;;;;4.25;3.3;;;;;;;6.14;53.6543;94543.84;;;;
2021/04/11 04:52:15;;;;;;;4.25;3.3;;;;;;;6.14;53.6543;94543.84;;;;
2021/04/11 04:53:18;;;;;;;4.25;3.3;;;;;;;6.14;53.6543;94543.84;;;;
2021/04/11 04:54:25;;;;;;;5.65;3.5;;;;;;;6.08;53.82715;94545.18;;;;
2021/04/11 04:55:35;;;;;;;5.65;3.5;;;;;;;6.08;53.82715;94545.18;;;;
2021/04/11 04:56:40;;;;;;;5.65;3.5;;;;;;;6.08;53.82715;94545.18;;;;
2021/04/11 04:57:45;;;;;;;5.65;3.5;;;;;;;6.08;53.82715;94545.18;;;;
2021/04/11 04:58:48;;;;;;;5.65;3.5;;;;;;;6.08;53.82715;94545.18;;;;
2021/04/11 04:59:55;;;;;;;5.65;3.5;;;;;;;6.08;53.82715;94545.18;;;;
2021/04/11 05:01:02;;;;;;;5.65;3.5;;;;;;;6.08;53.82715;94545.18;;;;
2021/04/11 05:02:11;;;;;;;5.65;3.5;;;;;;;6.08;53.82715;94545.18;;;;
2021/04/11 05:03:14;;;;;;;5.65;3.5;;;;;;;6.08;53.82715;94545.18;;;;
2021/04/11 05:04:17;;;;;;;4.35;3.2;;;;;;;6.13;54.00586;94546.11;;;;
2021/04/11 05:05:23;;;;;;;4.35;3.2;;;;;;;6.13;54.00586;94546.11;;;;
2021/04/11 05:06:26;;;;;;;4.35;3.2;;;;;;;6.13;54.00586;94546.11;;;;
2021/04/11 05:07:31;;;;;;;4.35;3.2;;;;;;;6.13;54.00586;94546.11;;;;
2021/04/11 05:08:37;;;;;;;4.35;3.2;;;;;;;6.13;54.00586;94546.11;;;;
2021/04/11 05:09:42;;;;;;;4.35;3.2;;;;;;;6.13;54.00586;94546.11;;;;
2021/04/11 05:10:46;;;;;;;4.35;3.2;;;;;;;6.13;54.00586;94546.11;;;;
2021/04/11 05:11:52;;;;;;;4.35;3.2;;;;;;;6.13;54.00586;94546.11;;;;
2021/04/11 05:12:58;;;;;;;4.35;3.2;;;;;;;6.13;54.00586;94546.11;;;;
2021/04/11 05:14:04;;;;;;;4.35;3.2;;;;;;;6.13;54.00586;94546.11;;;;
2021/04/11 05:15:08;;;;;;;3.85;3.05;;;;;;;6.35;54.10645;94550.06;;;;
2021/04/11 05:16:13;;;;;;;3.85;3.05;;;;;;;6.35;54.10645;94550.06;;;;
2021/04/11 05:17:20;;;;;;;3.85;3.05;;;;;;;6.35;54.10645;94550.06;;;;
2021/04/11 05:18:26;;;;;;;3.85;3.05;;;;;;;6.35;54.10645;94550.06;;;;
2021/04/11 05:19:31;;;;;;;3.85;3.05;;;;;;;6.35;54.10645;94550.06;;;;
2021/04/11 05:20:36;;;;;;;3.85;3.05;;;;;;;6.35;54.10645;94550.06;;;;
2021/04/11 05:21:41;;;;;;;3.85;3.05;;;;;;;6.35;54.10645;94550.06;;;;
2021/04/11 05:22:48;;;;;;;3.85;3.05;;;;;;;6.35;54.10645;94550.06;;;;
2021/04/11 05:23:53;;;;;;;3.85;3.05;;;;;;;6.35;54.10645;94550.06;;;;
2021/04/11 05:25:00;;;;;;;3.85;3.05;;;;;;;6.35;54.10645;94550.06;;;;
2021/04/11 05:26:07;;;;;;;4.45;3.2;;;;;;;6.73;54.08008;94548.22;;;;
2021/04/11 05:27:15;;;;;;;4.45;3.2;;;;;;;6.73;54.08008;94548.22;;;;
2021/04/11 05:28:22;;;;;;;4.45;3.2;;;;;;;6.73;54.08008;94548.22;;;;
2021/04/11 05:29:31;;;;;;;4.45;3.2;;;;;;;6.73;54.08008;94548.22;;;;
2021/04/11 05:30:39;;;;;;;4.45;3.2;;;;;;;6.73;54.08008;94548.22;;;;
2021/04/11 05:31:44;;;;;;;4.45;3.2;;;;;;;6.73;54.08008;94548.22;;;;
2021/04/11 05:32:45;;;;;;;4.45;3.2;;;;;;;6.73;54.08008;94548.22;;;;
2021/04/11 05:33:49;;;;;;;4.45;3.2;;;;;;;6.73;54.08008;94548.22;;;;
2021/04/11 05:34:50;;;;;;;4.45;3.2;;;;;;;6.73;54.08008;94548.22;;;;
2021/04/11 05:35:51;;;;;;;4.45;3.2;;;;;;;6.73;54.08008;94548.22;;;;
2021/04/11 05:37:06;;;;;;;4.3;3.5;;;;;;;7.23;53.84277;94548.24;;;;
2021/04/11 05:38:23;;;;;;;4.3;3.5;;;;;;;7.23;53.84277;94548.24;;;;
2021/04/11 05:39:30;;;;;;;4.3;3.5;;;;;;;7.23;53.84277;94548.24;;;;
2021/04/11 05:40:43;;;;;;;4.3;3.5;;;;;;;7.23;53.84277;94548.24;;;;
2021/04/11 05:41:47;;;;;;;4.3;3.5;;;;;;;7.23;53.84277;94548.24;;;;
2021/04/11 05:42:55;;;;;;;4.3;3.5;;;;;;;7.23;53.84277;94548.24;;;;
2021/04/11 05:44:00;;;;;;;4.3;3.5;;;;;;;7.23;53.84277;94548.24;;;;
2021/04/11 05:45:08;;;;;;;4.3;3.5;;;;;;;7.23;53.84277;94548.24;;;;
2021/04/11 05:46:14;;;;;;;4.3;3.5;;;;;;;7.23;53.84277;94548.24;;;;
2021/04/11 05:47:20;;;;;;;4.15;3.5;;;;;;;7.92;53.59668;94548.16;;;;
2021/04/11 05:48:27;;;;;;;4.15;3.5;;;;;;;7.92;53.59668;94548.16;;;;
2021/04/11 05:49:35;;;;;;;4.15;3.5;;;;;;;7.92;53.59668;94548.16;;;;
2021/04/11 05:50:43;;;;;;;4.15;3.5;;;;;;;7.92;53.59668;94548.16;;;;
2021/04/11 05:51:49;;;;;;;4.15;3.5;;;;;;;7.92;53.59668;94548.16;;;;
2021/04/11 05:52:54;;;;;;;4.15;3.5;;;;;;;7.92;53.59668;94548.16;;;;
2021/04/11 05:54:00;;;;;;;4.15;3.5;;;;;;;7.92;53.59668;94548.16;;;;
2021/04/11 05:55:05;;;;;;;4.15;3.5;;;;;;;7.92;53.59668;94548.16;;;;
2021/04/11 05:56:09;;;;;;;4.15;3.5;;;;;;;7.92;53.59668;94548.16;;;;
2021/04/11 05:57:19;;;;;;;4.15;3.5;;;;;;;7.92;53.59668;94548.16;;;;
2021/04/11 05:58:24;;;;;;;4.75;3.3;;;;;;;8.8;53.08398;94552.15;;;;
2021/04/11 05:59:29;;;;;;;4.75;3.3;;;;;;;8.8;53.08398;94552.15;;;;
2021/04/11 06:00:35;;;;;;;4.75;3.3;;;;;;;8.8;53.08398;94552.15;;;;
2021/04/11 06:01:41;;;;;;;4.75;3.3;;;;;;;8.8;53.08398;94552.15;;;;
2021/04/11 06:02:47;;;;;;;4.75;3.3;;;;;;;8.8;53.08398;94552.15;;;;
2021/04/11 06:03:52;;;;;;;4.75;3.3;;;;;;;8.8;53.08398;94552.15;;;;
2021/04/11 06:05:00;;;;;;;4.75;3.3;;;;;;;8.8;53.08398;94552.15;;;;
2021/04/11 06:06:08;;;;;;;4.75;3.3;;;;;;;8.8;53.08398;94552.15;;;;
2021/04/11 06:07:16;;;;;;;4.75;3.3;;;;;;;8.8;53.08398;94552.15;;;;
2021/04/11 06:08:21;;;;;;;3.7;3.1;;;;;;;9.82;52.30566;94544.48;;;;
2021/04/11 06:09:29;;;;;;;3.7;3.1;;;;;;;9.82;52.30566;94544.48;;;;
2021/04/11 06:10:35;;;;;;;3.7;3.1;;;;;;;9.82;52.30566;94544.48;;;;
2021/04/11 06:11:41;;;;;;;3.7;3.1;;;;;;;9.82;52.30566;94544.48;;;;
2021/04/11 06:12:48;;;;;;;3.7;3.1;;;;;;;9.82;52.30566;94544.48;;;;